Terminal Aerodrome Forecast
Issued by NWS

Home | Current Version | Previous Version | Text Only | Print | Product List | Glossary On
Versions: 1 2 3 4 5 6 7 8 9 10 11 12 13 14
487
FTUS43 KICT 230736 AAA
TAFRSL
TAF AMD
KRSL 230736Z 2308/2406 19012KT P6SM VCSH SCT070 OVC250
     FM231200 18012KT P6SM BKN250
     FM231700 19015G20KT P6SM SKC
     FM240400 16008KT P6SM BKN250=

USA.gov is the U.S. government's official web portal to all federal, state and local government web resources and services.